createdAt,value
2022-08-26T00:01:41.604Z,23.32
2022-08-26T00:04:11.273Z,23.16
2022-08-26T00:06:38.517Z,23.22
2022-08-26T00:09:09.629Z,23.09
2022-08-26T00:11:36.498Z,23.09
2022-08-26T00:14:03.531Z,23.35
2022-08-26T00:16:30.194Z,23.45
2022-08-26T00:18:57.106Z,23.35
2022-08-26T00:21:24.828Z,23.30
2022-08-26T00:23:51.436Z,23.46
2022-08-26T00:26:18.360Z,23.56
2022-08-26T00:28:44.930Z,23.62
2022-08-26T00:31:11.958Z,23.76
2022-08-26T00:33:39.607Z,23.66
2022-08-26T00:36:07.614Z,23.47
2022-08-26T00:38:37.850Z,23.33
2022-08-26T00:41:05.654Z,23.25
2022-08-26T00:43:47.362Z,23.22
2022-08-26T00:46:19.408Z,23.11
2022-08-26T00:48:49.518Z,23.07
2022-08-26T00:51:20.886Z,22.91
2022-08-26T00:53:56.823Z,22.84
2022-08-26T00:56:53.801Z,22.80
2022-08-26T00:59:21.138Z,22.74
2022-08-26T01:01:47.801Z,22.77
2022-08-26T01:04:19.375Z,22.61
2022-08-26T01:06:49.223Z,22.64
2022-08-26T01:09:16.793Z,22.48
2022-08-26T01:11:44.349Z,22.43
2022-08-26T01:14:13.668Z,22.41
2022-08-26T01:16:40.365Z,22.45
2022-08-26T01:19:32.000Z,22.39
2022-08-26T01:22:21.876Z,22.41
2022-08-26T01:24:54.609Z,22.34
2022-08-26T01:27:22.084Z,22.39
2022-08-26T01:29:50.916Z,22.37
2022-08-26T01:32:19.578Z,22.32
2022-08-26T01:34:47.668Z,22.30
2022-08-26T01:37:20.279Z,22.30
2022-08-26T01:39:50.761Z,22.22
2022-08-26T01:42:21.017Z,22.22
2022-08-26T01:45:01.047Z,22.22
2022-08-26T01:47:30.830Z,22.19
2022-08-26T01:50:01.175Z,22.13
2022-08-26T01:52:33.212Z,22.06
2022-08-26T01:55:00.842Z,22.09
2022-08-26T01:57:28.586Z,22.10
2022-08-26T01:59:58.687Z,22.03
2022-08-26T02:02:26.066Z,22.00
2022-08-26T02:05:05.405Z,22.00
2022-08-26T02:07:33.393Z,21.89
2022-08-26T02:10:00.202Z,21.90
2022-08-26T02:12:27.617Z,21.93
2022-08-26T02:14:58.006Z,21.92
2022-08-26T02:17:34.867Z,21.99
2022-08-26T02:20:02.485Z,21.81
2022-08-26T02:22:30.852Z,21.90
2022-08-26T02:25:13.452Z,21.86
2022-08-26T02:27:40.804Z,21.72
2022-08-26T02:30:15.133Z,21.71
2022-08-26T02:32:44.550Z,21.72
2022-08-26T02:35:13.100Z,21.74
2022-08-26T02:37:44.941Z,21.56
2022-08-26T02:40:14.042Z,21.46
2022-08-26T02:42:41.482Z,21.49
2022-08-26T02:45:10.634Z,21.41
2022-08-26T02:47:37.535Z,21.39
2022-08-26T02:50:04.952Z,21.30
2022-08-26T02:52:31.692Z,21.32
2022-08-26T02:54:58.954Z,21.35
2022-08-26T02:57:26.245Z,21.27
2022-08-26T02:59:52.853Z,21.28
2022-08-26T03:02:19.437Z,21.25
2022-08-26T03:04:57.342Z,21.23
2022-08-26T03:07:24.779Z,21.17
2022-08-26T03:09:53.001Z,21.21
2022-08-26T03:12:20.438Z,21.13
2022-08-26T03:14:47.828Z,21.17
2022-08-26T03:17:14.407Z,21.18
2022-08-26T03:19:40.944Z,21.06
2022-08-26T03:22:07.850Z,20.98
2022-08-26T03:24:34.528Z,20.96
2022-08-26T03:27:02.061Z,20.98
2022-08-26T03:29:52.193Z,20.97
2022-08-26T03:32:20.803Z,20.93
2022-08-26T03:34:47.430Z,21.04
2022-08-26T03:37:14.803Z,20.91
2022-08-26T03:39:41.781Z,20.91
2022-08-26T03:42:08.324Z,20.84
2022-08-26T03:44:37.725Z,20.93
2022-08-26T03:47:08.590Z,21.06
2022-08-26T03:49:36.014Z,21.13
2022-08-26T03:52:03.777Z,21.11
2022-08-26T03:54:30.579Z,21.30
2022-08-26T03:56:57.141Z,21.30
2022-08-26T03:59:23.682Z,21.34
2022-08-26T04:01:51.498Z,21.30
2022-08-26T04:04:18.239Z,21.42
2022-08-26T04:06:50.381Z,21.34
2022-08-26T04:09:20.801Z,21.39
2022-08-26T04:11:50.512Z,21.62
2022-08-26T04:14:21.095Z,21.64
2022-08-26T04:16:48.366Z,21.75
2022-08-26T04:19:16.677Z,21.85
2022-08-26T04:21:44.165Z,21.97
2022-08-26T04:24:12.865Z,21.75
2022-08-26T04:26:42.552Z,21.78
2022-08-26T04:29:17.710Z,21.78
2022-08-26T04:31:45.154Z,21.81
2022-08-26T04:34:11.798Z,21.58
2022-08-26T04:36:41.917Z,21.66
2022-08-26T04:39:12.070Z,21.65
2022-08-26T04:41:39.690Z,21.82
2022-08-26T04:44:07.767Z,21.75
2022-08-26T04:46:35.319Z,21.76
2022-08-26T04:49:11.010Z,21.71
2022-08-26T04:51:38.220Z,21.76
2022-08-26T04:54:07.075Z,21.72
2022-08-26T04:56:37.097Z,21.75
2022-08-26T04:59:07.224Z,21.74
2022-08-26T05:01:39.514Z,21.88
2022-08-26T05:04:08.198Z,21.68
2022-08-26T05:06:36.921Z,21.76
2022-08-26T05:09:03.984Z,21.83
2022-08-26T05:11:30.594Z,21.75
2022-08-26T05:14:01.658Z,21.74
2022-08-26T05:16:30.379Z,21.76
2022-08-26T05:18:57.531Z,21.76
2022-08-26T05:21:26.396Z,21.78
2022-08-26T05:23:57.106Z,21.82
2022-08-26T05:26:29.672Z,21.76
2022-08-26T05:28:56.876Z,21.92
2022-08-26T05:31:27.388Z,21.82
2022-08-26T05:33:54.868Z,21.93
2022-08-26T05:36:24.089Z,21.93
2022-08-26T05:38:54.336Z,21.86
2022-08-26T05:41:24.953Z,21.96
2022-08-26T05:43:52.473Z,22.12
2022-08-26T05:46:19.231Z,21.97
2022-08-26T05:48:46.945Z,21.86
2022-08-26T05:51:14.379Z,22.00
2022-08-26T05:53:43.969Z,21.93
2022-08-26T05:56:25.016Z,22.02
2022-08-26T05:58:52.155Z,22.10
2022-08-26T06:01:22.157Z,22.10
2022-08-26T06:03:52.620Z,22.03
2022-08-26T06:06:27.456Z,22.09
2022-08-26T06:08:57.547Z,21.99
2022-08-26T06:11:25.568Z,22.06
2022-08-26T06:13:53.819Z,22.02
2022-08-26T06:16:24.578Z,22.14
2022-08-26T06:18:53.182Z,21.99
2022-08-26T06:21:27.903Z,22.02
2022-08-26T06:24:18.306Z,22.09
2022-08-26T06:26:54.877Z,22.02
2022-08-26T06:33:39.662Z,22.09
2022-08-26T06:36:06.917Z,22.00
2022-08-26T06:38:33.861Z,22.16
2022-08-26T06:41:03.209Z,22.23
2022-08-26T06:43:30.135Z,22.26
2022-08-26T06:46:05.073Z,22.30
2022-08-26T06:48:35.939Z,22.23
2022-08-26T06:51:11.436Z,22.32
2022-08-26T06:53:39.722Z,22.37
2022-08-26T06:56:09.994Z,22.44
2022-08-26T06:58:39.077Z,22.53
2022-08-26T07:01:28.314Z,22.55
2022-08-26T07:03:59.611Z,22.64
2022-08-26T07:06:28.330Z,22.60
2022-08-26T07:09:01.712Z,22.54
2022-08-26T07:11:31.008Z,22.41
2022-08-26T07:13:58.991Z,22.32
2022-08-26T07:16:28.375Z,22.22
2022-08-26T07:18:56.928Z,22.29
2022-08-26T07:21:23.861Z,22.34
2022-08-26T07:23:50.687Z,22.40
2022-08-26T07:26:24.904Z,22.43
2022-08-26T07:28:53.539Z,22.53
2022-08-26T07:31:22.611Z,22.59
2022-08-26T07:33:49.511Z,22.68
2022-08-26T07:36:21.175Z,22.78
2022-08-26T07:38:48.305Z,22.68
2022-08-26T07:41:17.469Z,22.50
2022-08-26T07:43:45.545Z,22.60
2022-08-26T07:46:20.755Z,22.60
2022-08-26T07:48:54.060Z,22.67
2022-08-26T07:51:21.367Z,22.61
2022-08-26T07:53:52.798Z,22.75
2022-08-26T07:56:20.863Z,22.51
2022-08-26T07:58:50.947Z,22.54
2022-08-26T08:01:20.018Z,22.59
2022-08-26T08:03:50.555Z,22.55
2022-08-26T08:06:18.550Z,22.63
2022-08-26T08:08:45.153Z,22.48
2022-08-26T08:11:12.104Z,22.59
2022-08-26T08:13:39.811Z,22.53
2022-08-26T08:16:12.529Z,22.44
2022-08-26T08:18:40.536Z,22.61
2022-08-26T08:21:24.097Z,22.51
2022-08-26T08:23:55.600Z,22.45
2022-08-26T08:26:23.836Z,22.59
2022-08-26T08:28:53.639Z,22.59
2022-08-26T08:31:55.971Z,22.60
2022-08-26T08:34:19.310Z,22.59
2022-08-26T08:36:48.518Z,22.67
2022-08-26T08:39:17.053Z,22.65
2022-08-26T08:41:46.577Z,22.54
2022-08-26T08:44:19.980Z,22.54
2022-08-26T08:46:56.483Z,22.64
2022-08-26T08:49:26.005Z,22.50
2022-08-26T08:52:05.086Z,22.43
2022-08-26T08:54:32.653Z,22.60
2022-08-26T08:57:12.597Z,22.54
2022-08-26T08:59:53.350Z,22.54
2022-08-26T09:02:35.765Z,22.45
2022-08-26T09:05:22.543Z,22.40
2022-08-26T09:08:19.814Z,22.45
2022-08-26T09:10:54.390Z,22.34
2022-08-26T09:13:25.426Z,22.40
2022-08-26T09:16:07.540Z,22.55
2022-08-26T09:19:01.774Z,22.43
2022-08-26T09:21:31.409Z,22.32
2022-08-26T09:23:58.787Z,22.47
2022-08-26T09:26:40.994Z,22.41
2022-08-26T09:31:45.369Z,22.57
2022-08-26T09:34:22.132Z,22.60
2022-08-26T09:36:53.638Z,22.74
2022-08-26T09:39:37.825Z,22.84
2022-08-26T09:42:07.861Z,22.98
2022-08-26T09:44:56.499Z,23.18
2022-08-26T09:47:29.317Z,22.87
2022-08-26T09:50:29.217Z,22.91
2022-08-26T09:53:17.244Z,22.92
2022-08-26T09:55:49.903Z,23.03
2022-08-26T09:58:37.953Z,23.25
2022-08-26T10:01:15.085Z,23.22
2022-08-26T10:03:42.353Z,23.23
2022-08-26T10:06:12.285Z,23.21
2022-08-26T10:08:42.360Z,23.46
2022-08-26T10:11:29.968Z,23.21
2022-08-26T10:14:25.354Z,23.29
2022-08-26T10:17:07.185Z,23.19
2022-08-26T10:19:56.829Z,23.32
2022-08-26T10:22:24.152Z,23.45
2022-08-26T10:24:56.053Z,23.29
2022-08-26T10:27:50.977Z,23.14
2022-08-26T10:30:23.371Z,23.07
2022-08-26T10:33:00.879Z,22.74
2022-08-26T10:35:28.995Z,22.95
2022-08-26T10:38:00.442Z,22.95
2022-08-26T10:40:44.855Z,22.96
2022-08-26T10:43:27.209Z,23.11
2022-08-26T10:45:59.141Z,22.90
2022-08-26T10:48:25.974Z,23.08
2022-08-26T10:51:04.269Z,23.32
2022-08-26T10:53:58.272Z,23.56
2022-08-26T10:56:29.746Z,23.49
2022-08-26T10:59:16.543Z,23.56
2022-08-26T11:01:58.209Z,23.67
2022-08-26T11:04:48.402Z,23.69
2022-08-26T11:07:31.700Z,23.89
2022-08-26T11:10:09.787Z,24.05
2022-08-26T11:12:36.321Z,24.10
2022-08-26T11:15:11.410Z,24.45
2022-08-26T11:17:45.954Z,24.39
2022-08-26T11:20:50.866Z,24.44
2022-08-26T11:23:20.606Z,24.65
2022-08-26T11:25:57.334Z,24.32
2022-08-26T11:28:44.145Z,24.73
2022-08-26T11:31:25.930Z,24.65
2022-08-26T11:34:07.281Z,24.69
2022-08-26T11:36:45.442Z,24.17
2022-08-26T11:39:31.744Z,24.18
2022-08-26T11:42:31.597Z,24.08
2022-08-26T11:44:59.892Z,24.24
2022-08-26T11:47:31.619Z,24.24
2022-08-26T11:50:15.437Z,24.08
2022-08-26T11:53:01.729Z,24.02
2022-08-26T11:55:30.735Z,24.00
2022-08-26T11:58:01.030Z,24.11
2022-08-26T12:00:33.755Z,24.18
2022-08-26T12:03:06.488Z,24.16
2022-08-26T12:05:42.389Z,23.93
2022-08-26T12:08:12.435Z,24.10
2022-08-26T12:10:40.242Z,24.45
2022-08-26T12:13:08.685Z,24.66
2022-08-26T12:15:35.845Z,24.66
2022-08-26T12:18:29.195Z,24.75
2022-08-26T12:20:59.314Z,24.75
2022-08-26T12:23:35.075Z,24.57
2022-08-26T12:26:18.345Z,24.73
2022-08-26T12:28:47.712Z,24.82
2022-08-26T12:31:22.580Z,25.02
2022-08-26T12:33:49.777Z,24.86
2022-08-26T12:36:38.354Z,25.00
2022-08-26T12:39:24.516Z,24.65
2022-08-26T12:41:54.749Z,24.92
2022-08-26T12:44:41.543Z,24.78
2022-08-26T12:47:42.704Z,24.80
2022-08-26T12:50:18.954Z,25.06
2022-08-26T12:52:54.367Z,24.92
2022-08-26T12:55:43.052Z,24.96
2022-08-26T12:58:28.720Z,24.73
2022-08-26T13:01:04.790Z,24.53
2022-08-26T13:03:31.466Z,24.49
2022-08-26T13:06:15.926Z,24.71
2022-08-26T13:08:48.349Z,24.44
2022-08-26T13:11:22.191Z,24.65
2022-08-26T13:13:53.433Z,24.68
2022-08-26T13:16:22.214Z,24.55
2022-08-26T13:18:52.856Z,24.87
2022-08-26T13:21:22.560Z,24.78
2022-08-26T13:23:50.332Z,24.65
2022-08-26T13:26:18.139Z,24.72
2022-08-26T13:28:44.711Z,24.78
2022-08-26T13:31:16.090Z,24.90
2022-08-26T13:33:45.361Z,24.83
2022-08-26T13:36:14.948Z,24.49
2022-08-26T13:38:41.887Z,24.57
2022-08-26T13:41:14.995Z,24.41
2022-08-26T13:43:43.226Z,24.53
2022-08-26T13:46:09.834Z,24.45
2022-08-26T13:48:36.651Z,24.16
2022-08-26T13:51:08.278Z,24.16
2022-08-26T13:53:35.661Z,24.07
2022-08-26T13:56:02.380Z,24.01
2022-08-26T13:58:29.347Z,23.84
2022-08-26T14:00:57.991Z,24.08
2022-08-26T14:03:25.019Z,24.10
2022-08-26T14:05:53.464Z,23.93
2022-08-26T14:08:21.594Z,23.93
2022-08-26T14:13:15.583Z,23.74
2022-08-26T14:15:42.426Z,23.71
2022-08-26T14:18:12.189Z,23.73
2022-08-26T14:20:39.424Z,23.62
2022-08-26T14:23:14.475Z,23.70
2022-08-26T14:25:41.248Z,23.58
2022-08-26T14:28:07.942Z,23.53
2022-08-26T14:30:34.615Z,23.66
2022-08-26T14:33:01.139Z,23.69
2022-08-26T14:35:31.150Z,23.56
2022-08-26T14:37:58.315Z,23.54
2022-08-26T14:40:28.961Z,23.62
2022-08-26T14:42:55.980Z,23.59
2022-08-26T14:45:28.550Z,23.77
2022-08-26T14:47:59.838Z,23.59
2022-08-26T14:50:26.648Z,23.43
2022-08-26T14:53:11.978Z,23.40
2022-08-26T14:55:42.220Z,23.71
2022-08-26T14:58:09.881Z,23.70
2022-08-26T15:00:37.252Z,23.69
2022-08-26T15:03:06.874Z,23.70
2022-08-26T15:05:34.144Z,23.67
2022-08-26T15:08:02.318Z,23.69
2022-08-26T15:10:28.971Z,24.00
2022-08-26T15:12:55.594Z,24.99
2022-08-26T15:15:23.978Z,25.55
2022-08-26T15:17:50.579Z,25.38
2022-08-26T15:20:17.137Z,25.24
2022-08-26T15:22:44.479Z,25.36
2022-08-26T15:25:11.254Z,25.48
2022-08-26T15:27:38.881Z,25.36
2022-08-26T15:30:09.187Z,25.27
2022-08-26T15:32:36.277Z,25.06
2022-08-26T15:35:08.204Z,25.02
2022-08-26T15:37:35.914Z,24.96
2022-08-26T15:40:02.954Z,24.65
2022-08-26T15:42:29.755Z,24.38
2022-08-26T15:44:56.433Z,24.55
2022-08-26T15:47:23.827Z,24.31
2022-08-26T15:49:50.384Z,24.35
2022-08-26T15:52:17.386Z,24.28
2022-08-26T15:54:47.348Z,24.16
2022-08-26T15:57:16.448Z,24.20
2022-08-26T15:59:45.723Z,24.24
2022-08-26T16:02:12.438Z,24.28
2022-08-26T16:04:39.139Z,24.13
2022-08-26T16:07:05.865Z,24.02
2022-08-26T16:09:32.469Z,23.90
2022-08-26T16:11:59.022Z,24.07
2022-08-26T16:14:28.839Z,23.97
2022-08-26T16:16:57.606Z,24.10
2022-08-26T16:19:24.650Z,24.10
2022-08-26T16:21:51.551Z,24.16
2022-08-26T16:24:24.746Z,24.10
2022-08-26T16:26:58.675Z,24.25
2022-08-26T16:29:25.502Z,24.28
2022-08-26T16:31:54.605Z,24.18
2022-08-26T16:34:21.946Z,24.01
2022-08-26T16:36:48.493Z,24.00
2022-08-26T16:39:15.058Z,23.97
2022-08-26T16:41:42.275Z,24.18
2022-08-26T16:44:09.125Z,23.93
2022-08-26T16:46:36.025Z,23.76
2022-08-26T16:49:04.747Z,23.69
2022-08-26T16:51:32.709Z,23.69
2022-08-26T16:54:07.141Z,23.65
2022-08-26T16:56:34.530Z,23.49
2022-08-26T16:59:02.272Z,23.30
2022-08-26T17:01:28.890Z,23.33
2022-08-26T17:03:55.630Z,23.28
2022-08-26T17:06:22.377Z,23.21
2022-08-26T17:08:49.547Z,23.28
2022-08-26T17:11:16.155Z,23.25
2022-08-26T17:13:43.047Z,23.26
2022-08-26T17:16:11.944Z,23.15
2022-08-26T17:18:38.653Z,23.18
2022-08-26T17:21:10.735Z,23.12
2022-08-26T17:23:38.425Z,23.14
2022-08-26T17:26:05.408Z,23.14
2022-08-26T17:28:32.460Z,23.07
2022-08-26T17:30:59.470Z,23.16
2022-08-26T17:33:26.254Z,23.03
2022-08-26T17:35:53.357Z,23.11
2022-08-26T17:38:21.398Z,23.03
2022-08-26T17:40:53.676Z,23.15
2022-08-26T17:43:20.906Z,23.07
2022-08-26T17:45:47.645Z,22.85
2022-08-26T17:48:14.522Z,22.85
2022-08-26T17:50:49.317Z,22.85
2022-08-26T17:53:19.210Z,22.78
2022-08-26T17:58:40.548Z,22.99
2022-08-26T18:01:14.459Z,22.80
2022-08-26T18:04:05.967Z,22.84
2022-08-26T18:06:32.782Z,22.75
2022-08-26T18:09:00.241Z,22.84
2022-08-26T18:11:27.209Z,22.71
2022-08-26T18:13:54.053Z,22.80
2022-08-26T18:16:24.171Z,22.70
2022-08-26T18:18:53.839Z,22.74
2022-08-26T18:21:23.673Z,22.71
2022-08-26T18:23:51.384Z,22.70
2022-08-26T18:26:36.151Z,22.82
2022-08-26T18:29:04.118Z,22.88
2022-08-26T18:31:31.565Z,22.74
2022-08-26T18:34:01.463Z,22.64
2022-08-26T18:36:36.749Z,22.55
2022-08-26T18:39:05.838Z,22.54
2022-08-26T18:41:38.734Z,22.61
2022-08-26T18:44:05.441Z,22.54
2022-08-26T18:46:32.222Z,22.48
2022-08-26T18:48:58.977Z,22.57
2022-08-26T18:51:29.717Z,22.47
2022-08-26T18:53:57.219Z,22.57
2022-08-26T18:56:23.982Z,22.39
2022-08-26T18:58:50.582Z,22.53
2022-08-26T19:01:18.987Z,22.40
2022-08-26T19:03:46.840Z,22.27
2022-08-26T19:06:20.254Z,22.34
2022-08-26T19:08:49.712Z,22.33
2022-08-26T19:11:18.107Z,22.47
2022-08-26T19:13:58.419Z,22.45
2022-08-26T19:16:26.940Z,22.43
2022-08-26T19:18:54.703Z,22.33
2022-08-26T19:21:23.035Z,22.41
2022-08-26T19:23:50.175Z,22.37
2022-08-26T19:26:17.597Z,22.39
2022-08-26T19:28:44.242Z,22.27
2022-08-26T19:31:11.998Z,22.22
2022-08-26T19:33:40.315Z,22.19
2022-08-26T19:36:08.711Z,22.22
2022-08-26T19:38:38.043Z,22.33
2022-08-26T19:41:04.594Z,22.22
2022-08-26T19:43:31.115Z,22.29
2022-08-26T19:45:58.906Z,22.12
2022-08-26T19:48:25.471Z,22.12
2022-08-26T19:50:51.978Z,22.12
2022-08-26T19:53:19.794Z,22.03
2022-08-26T19:55:46.340Z,22.09
2022-08-26T19:58:13.018Z,22.02
2022-08-26T20:00:39.797Z,21.97
2022-08-26T20:03:08.593Z,21.96
2022-08-26T20:05:39.585Z,22.03
2022-08-26T20:08:06.169Z,21.90
2022-08-26T20:10:35.293Z,22.00
2022-08-26T20:13:01.877Z,22.04
2022-08-26T20:15:28.645Z,21.99
2022-08-26T20:17:55.936Z,22.04
2022-08-26T20:20:41.092Z,21.83
2022-08-26T20:23:08.720Z,21.83
2022-08-26T20:25:35.464Z,21.79
2022-08-26T20:28:02.150Z,21.79
2022-08-26T20:30:28.708Z,21.88
2022-08-26T20:32:55.588Z,21.85
2022-08-26T20:35:23.937Z,21.72
2022-08-26T20:37:50.542Z,21.66
2022-08-26T20:40:17.470Z,21.71
2022-08-26T20:42:44.072Z,21.69
2022-08-26T20:45:11.240Z,21.72
2022-08-26T20:47:37.894Z,21.65
2022-08-26T20:50:04.828Z,21.69
2022-08-26T20:52:31.492Z,21.54
2022-08-26T20:54:58.153Z,21.54
2022-08-26T20:57:24.711Z,21.55
2022-08-26T20:59:51.411Z,21.56
2022-08-26T21:02:18.278Z,21.46
2022-08-26T21:04:44.824Z,21.44
2022-08-26T21:07:11.493Z,21.38
2022-08-26T21:09:38.037Z,21.37
2022-08-26T21:12:05.181Z,21.28
2022-08-26T21:14:32.030Z,21.30
2022-08-26T21:16:58.824Z,21.38
2022-08-26T21:19:25.420Z,21.35
2022-08-26T21:21:52.092Z,21.34
2022-08-26T21:24:18.904Z,21.41
2022-08-26T21:26:45.984Z,21.49
2022-08-26T21:29:13.888Z,21.61
2022-08-26T21:31:46.019Z,21.59
2022-08-26T21:34:16.111Z,21.56
2022-08-26T21:36:42.937Z,21.51
2022-08-26T21:39:12.074Z,21.35
2022-08-26T21:41:40.536Z,21.28
2022-08-26T21:44:07.587Z,21.27
2022-08-26T21:46:37.373Z,21.32
2022-08-26T21:49:07.470Z,21.23
2022-08-26T21:51:37.875Z,21.24
2022-08-26T21:54:10.161Z,21.27
2022-08-26T21:56:39.915Z,21.38
2022-08-26T21:59:07.630Z,21.27
2022-08-26T22:01:34.786Z,21.21
2022-08-26T22:04:08.584Z,20.94
2022-08-26T22:06:41.769Z,20.84
2022-08-26T22:09:08.369Z,21.03
2022-08-26T22:11:35.053Z,20.97
2022-08-26T22:14:01.736Z,20.73
2022-08-26T22:16:28.814Z,20.76
2022-08-26T22:18:55.712Z,20.66
2022-08-26T22:21:24.350Z,20.57
2022-08-26T22:23:51.541Z,20.45
2022-08-26T22:26:25.774Z,20.26
2022-08-26T22:28:58.489Z,20.24
2022-08-26T22:31:28.102Z,20.38
2022-08-26T22:34:07.200Z,20.33
2022-08-26T22:36:34.050Z,20.18
2022-08-26T22:39:01.139Z,20.14
2022-08-26T22:41:27.875Z,20.22
2022-08-26T22:43:54.558Z,20.18
2022-08-26T22:46:24.864Z,20.11
2022-08-26T22:48:54.037Z,19.92
2022-08-26T22:51:21.978Z,19.90
2022-08-26T22:53:48.696Z,19.87
2022-08-26T22:56:15.777Z,19.85
2022-08-26T22:58:42.522Z,19.64
2022-08-26T23:01:09.138Z,19.78
2022-08-26T23:03:35.882Z,19.78
2022-08-26T23:06:06.000Z,19.88
2022-08-26T23:08:32.755Z,19.78
2022-08-26T23:10:59.302Z,19.73
2022-08-26T23:13:25.850Z,19.63
2022-08-26T23:16:00.620Z,19.80
2022-08-26T23:18:27.220Z,19.88
2022-08-26T23:20:55.515Z,19.91
2022-08-26T23:23:22.893Z,19.84
2022-08-26T23:25:49.927Z,19.63
2022-08-26T23:28:17.061Z,19.70
2022-08-26T23:30:43.691Z,19.49
2022-08-26T23:33:10.244Z,19.57
2022-08-26T23:35:36.813Z,19.71
2022-08-26T23:38:05.296Z,19.77
2022-08-26T23:40:34.681Z,19.51
2022-08-26T23:43:05.252Z,19.51
2022-08-26T23:45:32.471Z,19.20
2022-08-26T23:47:59.371Z,19.39
2022-08-26T23:50:49.535Z,19.28
2022-08-26T23:53:20.046Z,19.30
2022-08-26T23:55:52.081Z,19.16
